East Freetown, Massachusetts
Current Conditions -  °F | °C
As of 11:53 AM on Friday 19 Dec 2014 (Local Time) from KEWB Reporting Station
Overcast Overcast  
Wind Chill: 30°   Ceiling: 3100
Heat Index: 36°   Visibility: 10mi
Dew Point: 23°   Wind: 7mph
Humidity: 59%   Direction: 350°N
Pressure: 29.94"   Gusts: NA
Location:  41.77°N, 70.96°W
Report Text: KEWB 191653Z 35006KT 10SM OVC031 02/M05 A2994 RMK AO2 SLP139 T00221050
Loading
Personal Weather Stations






























Interactive Weather Map New forecast layout! Learn more

10-Day Weather Forecast

Advertisements
Track Severe Weather on mobile